Arlington, AL

12:36 AM CDT on July 31, 2014 (GMT -0500)
Greenville Municipal (KPRN) Elev 449 ft | 31.85 °N, 86.61 °W | Change Station

Current weather conditions updated 40 minutes ago

Clear
Clear
66 °F
Feels Like 66 °F
N
0
Wind Variable Wind from North

Today is forecast to be Much Warmer than yesterday. Showers and thunderstorms early tomorrow night.

Today
High -- | Low -- °F
--% Chance of Precip.
Yesterday
High -- | Low -- °F
Precip. -- in
6:04 AM 7:48 PM
Waxing Crescent, 16% visible
Pressure 30.01 in
Visibility 10.0 miles
Clouds Clear
Dew Point 62 °F
Humidity 87%
Rainfall 0.00 in
Snow Depth Not available.
UV 0 out of 12
Pollen 4.20 out of 12
Air Quality Not available.
Flu Activity Not available.
METAR KPRN 310456Z AUTO 00000KT 10SM CLR 19/17 A3002 RMK AO2 SLP161 T01890167

More Conditions Fewer Conditions

Pressure 30.01 in
Visibility 10.0 miles
Clouds Clear
Dew Point 62 °F
Humidity 87%
Rainfall 0.00 in
Snow Depth Not available.
UV 0 out of 12
Pollen 4.20 out of 12
Air Quality Not available.
Flu Activity Not available.
METAR KPRN 310456Z AUTO 00000KT 10SM CLR 19/17 A3002 RMK AO2 SLP161 T01890167

More Conditions Fewer Conditions

10-Day Weather Forecast

Almanac

Astronomy

Jul. 31, 2014 Rise Set
Actual Time 6:04 AM CDT 7:48 PM CDT
Civil Twilight 5:38 AM CDT 8:14 PM CDT
Nautical Twilight 5:06 AM CDT 8:46 PM CDT
Astronomical Twilight 4:32 AM CDT 9:20 PM CDT
Moon 10:13 AM CDT 10:20 PM CDT
Length of Visible Light 14h 36m
Length of Day
13h 43m
Tomorrow will be 1m 26s shorter.
Waxing Crescent, 16% of the Moon is Illuminated
Today
Waxing Crescent
Aug 3
First Quarter
Aug 10
Full
Aug 17
Last Quarter
Aug 25
New

Today's Extremes

State Highs State Lows

Community

WunderPhotos

Upload Photos

1,739,248 photos uploaded!

Nearby

Snow Depth

Station Depth Elevation
No new snow has been reported.

Earthquake Activity

City Distance Mag. Time & Date
No recent earthquake activity has been reported nearby.
Minimum magnitude displayed is 2.5.

Coastal Water Temperatures

Place Temperature
No Stations Reporting

Nearby Weather Stations

Station Location Temp. Dew Point Humidity Wind Precip. Elev Updated Type
HCN THOMASVILLE 2 S AL , Thomasville, AL 63 °F - - North  at  - 0.00 in / hr 350 ft 11:40 PM CDT MADIS

Show More Stations Show Fewer Stations